createdAt,value
2023-05-22T00:01:26.672Z,21.30
2023-05-22T00:06:28.822Z,20.80
2023-05-22T00:11:31.105Z,20.90
2023-05-22T00:16:33.386Z,21.00
2023-05-22T00:21:37.721Z,21.00
2023-05-22T00:26:40.001Z,20.90
2023-05-22T00:31:42.205Z,20.80
2023-05-22T00:36:44.831Z,20.70
2023-05-22T00:41:47.505Z,20.90
2023-05-22T00:46:51.264Z,20.70
2023-05-22T00:51:53.508Z,20.60
2023-05-22T00:56:56.023Z,20.70
2023-05-22T01:01:58.810Z,20.60
2023-05-22T01:07:03.155Z,20.40
2023-05-22T01:12:36.535Z,19.90
2023-05-22T01:18:11.422Z,19.90
2023-05-22T01:23:44.767Z,20.40
2023-05-22T01:29:04.832Z,20.30
2023-05-22T01:34:12.662Z,20.50
2023-05-22T01:39:17.528Z,20.70
2023-05-22T01:44:20.901Z,20.40
2023-05-22T01:49:24.035Z,20.00
2023-05-22T01:54:42.469Z,19.70
2023-05-22T01:59:55.631Z,19.90
2023-05-22T02:05:01.482Z,20.30
2023-05-22T02:10:05.699Z,20.40
2023-05-22T02:15:09.517Z,19.80
2023-05-22T02:20:15.708Z,19.80
2023-05-22T02:25:19.093Z,20.20
2023-05-22T02:30:21.587Z,20.30
2023-05-22T02:35:26.425Z,20.50
2023-05-22T02:40:28.636Z,20.10
2023-05-22T02:45:31.437Z,20.20
2023-05-22T02:50:33.671Z,20.20
2023-05-22T02:55:36.131Z,20.20
2023-05-22T03:00:39.124Z,20.50
2023-05-22T03:05:41.482Z,20.50
2023-05-22T03:10:44.651Z,20.50
2023-05-22T03:15:47.188Z,20.30
2023-05-22T03:20:51.303Z,20.50
2023-05-22T03:25:53.557Z,20.10
2023-05-22T03:30:57.470Z,19.70
2023-05-22T03:36:03.832Z,19.70
2023-05-22T03:41:06.207Z,19.70
2023-05-22T03:46:08.567Z,19.90
2023-05-22T03:51:10.769Z,20.00
2023-05-22T03:56:13.652Z,20.10
2023-05-22T04:01:17.127Z,20.30
2023-05-22T04:06:22.422Z,20.20
2023-05-22T04:11:24.749Z,20.20
2023-05-22T04:16:29.027Z,19.90
2023-05-22T04:21:35.883Z,19.90
2023-05-22T04:26:41.007Z,20.00
2023-05-22T04:31:44.777Z,19.80
2023-05-22T04:36:48.219Z,19.50
2023-05-22T04:41:50.670Z,19.80
2023-05-22T04:46:53.953Z,20.10
2023-05-22T04:51:57.598Z,20.10
2023-05-22T04:57:00.059Z,20.20
2023-05-22T05:02:02.480Z,20.40
2023-05-22T05:07:06.306Z,20.50
2023-05-22T05:12:08.913Z,20.30
2023-05-22T05:17:11.341Z,20.20
2023-05-22T05:22:15.663Z,20.20
2023-05-22T05:27:18.276Z,20.30
2023-05-22T05:32:21.147Z,20.10
2023-05-22T05:37:35.483Z,20.20
2023-05-22T05:42:39.579Z,20.30
2023-05-22T05:47:44.461Z,20.40
2023-05-22T05:52:47.096Z,20.50
2023-05-22T05:57:52.589Z,20.50
2023-05-22T06:03:01.632Z,20.40
2023-05-22T06:08:32.630Z,20.50
2023-05-22T06:13:35.333Z,20.60
2023-05-22T06:18:37.515Z,20.90
2023-05-22T06:23:40.415Z,20.90
2023-05-22T06:28:45.304Z,21.10
2023-05-22T06:33:47.890Z,21.30
2023-05-22T06:38:50.475Z,21.10
2023-05-22T06:44:16.129Z,20.70
2023-05-22T06:49:19.399Z,21.30
2023-05-22T06:54:28.782Z,21.70
2023-05-22T06:59:32.892Z,22.00
2023-05-22T07:04:40.769Z,22.30
2023-05-22T07:09:47.645Z,22.60
2023-05-22T07:14:50.511Z,22.70
2023-05-22T07:19:53.121Z,22.90
2023-05-22T07:24:56.228Z,22.90
2023-05-22T07:30:03.432Z,23.20
2023-05-22T07:35:08.195Z,23.70
2023-05-22T07:40:11.407Z,24.10
2023-05-22T07:45:13.880Z,24.50
2023-05-22T07:50:17.205Z,24.60
2023-05-22T07:55:21.425Z,24.70
2023-05-22T08:00:25.516Z,24.60
2023-05-22T08:05:27.786Z,24.50
2023-05-22T08:10:41.706Z,24.50
2023-05-22T08:15:49.751Z,24.60
2023-05-22T08:20:54.945Z,24.90
2023-05-22T08:25:58.203Z,24.80
2023-05-22T08:31:00.385Z,24.60
2023-05-22T08:36:02.521Z,25.00
2023-05-22T08:41:06.957Z,25.40
2023-05-22T08:46:10.742Z,26.10
2023-05-22T08:51:18.885Z,26.40
2023-05-22T08:56:22.429Z,26.30
2023-05-22T09:01:25.281Z,26.10
2023-05-22T09:06:29.379Z,26.00
2023-05-22T09:11:31.729Z,25.60
2023-05-22T09:16:34.251Z,26.70
2023-05-22T09:21:37.509Z,27.70
2023-05-22T09:26:40.575Z,27.90
2023-05-22T09:31:44.935Z,27.70
2023-05-22T09:36:51.505Z,27.40
2023-05-22T09:41:53.671Z,26.90
2023-05-22T09:46:56.012Z,26.70
2023-05-22T09:51:59.392Z,26.50
2023-05-22T09:57:05.044Z,27.20
2023-05-22T10:02:09.150Z,28.40
2023-05-22T10:07:14.259Z,28.60
2023-05-22T10:12:20.972Z,28.50
2023-05-22T10:17:25.079Z,28.00
2023-05-22T10:22:29.501Z,28.30
2023-05-22T10:27:32.106Z,28.60
2023-05-22T10:32:48.056Z,29.20
2023-05-22T10:38:03.654Z,29.90
2023-05-22T10:43:06.009Z,30.00
2023-05-22T10:48:12.009Z,30.20
2023-05-22T10:53:28.246Z,30.30
2023-05-22T10:58:34.611Z,30.60
2023-05-22T11:04:00.536Z,30.80
2023-05-22T11:09:20.645Z,31.20
2023-05-22T11:14:26.001Z,31.60
2023-05-22T11:19:28.332Z,31.50
2023-05-22T11:24:34.648Z,31.30
2023-05-22T11:29:39.101Z,31.60
2023-05-22T11:34:43.267Z,31.90
2023-05-22T11:40:01.052Z,32.20
2023-05-22T11:45:04.904Z,32.20
2023-05-22T11:50:10.940Z,32.30
2023-05-22T11:55:13.167Z,32.10
2023-05-22T12:00:16.395Z,32.10
2023-05-22T12:05:21.994Z,32.20
2023-05-22T12:10:26.274Z,32.40
2023-05-22T12:15:28.633Z,32.20
2023-05-22T12:20:31.450Z,32.20
2023-05-22T12:25:37.409Z,32.30
2023-05-22T12:30:42.243Z,32.20
2023-05-22T12:35:44.553Z,32.50
2023-05-22T12:40:47.240Z,32.50
2023-05-22T12:45:50.001Z,32.80
2023-05-22T12:50:52.283Z,32.70
2023-05-22T12:55:54.388Z,32.70
2023-05-22T13:00:56.705Z,32.60
2023-05-22T13:05:58.906Z,32.80
2023-05-22T13:11:01.294Z,33.20
2023-05-22T13:16:03.497Z,32.70
2023-05-22T13:21:06.451Z,32.30
2023-05-22T13:26:08.805Z,32.00
2023-05-22T13:31:11.018Z,32.20
2023-05-22T13:36:13.530Z,32.00
2023-05-22T13:41:16.159Z,32.00
2023-05-22T13:46:20.660Z,31.70
2023-05-22T13:51:22.879Z,30.90
2023-05-22T13:56:24.989Z,30.40
2023-05-22T14:01:27.728Z,30.80
2023-05-22T14:06:30.030Z,30.70
2023-05-22T14:11:32.228Z,30.80
2023-05-22T14:16:34.500Z,30.80
2023-05-22T14:21:36.723Z,30.80
2023-05-22T14:26:39.418Z,30.90
2023-05-22T14:31:51.792Z,30.50
2023-05-22T14:36:56.656Z,31.00
2023-05-22T14:41:58.822Z,31.40
2023-05-22T14:47:01.101Z,30.60
2023-05-22T14:52:03.273Z,29.90
2023-05-22T14:57:05.762Z,29.50
2023-05-22T15:02:08.107Z,28.70
2023-05-22T15:07:10.375Z,28.10
2023-05-22T15:12:15.664Z,27.80
2023-05-22T15:17:18.261Z,27.70
2023-05-22T15:22:20.543Z,27.80
2023-05-22T15:27:22.839Z,27.60
2023-05-22T15:32:25.018Z,27.40
2023-05-22T15:37:29.736Z,27.20
2023-05-22T15:42:33.869Z,26.00
2023-05-22T15:47:36.038Z,25.60
2023-05-22T15:52:38.549Z,26.00
2023-05-22T15:57:40.830Z,26.10
2023-05-22T16:02:43.509Z,26.10
2023-05-22T16:07:46.216Z,26.30
2023-05-22T16:12:48.563Z,26.70
2023-05-22T16:17:50.897Z,27.20
2023-05-22T16:22:53.125Z,26.70
2023-05-22T16:27:55.420Z,26.60
2023-05-22T16:32:57.840Z,26.90
2023-05-22T16:38:00.006Z,27.40
2023-05-22T16:43:02.369Z,27.10
2023-05-22T16:48:04.697Z,26.50
2023-05-22T16:53:06.934Z,26.40
2023-05-22T16:58:13.013Z,26.60
2023-05-22T17:03:15.557Z,26.40
2023-05-22T17:08:18.264Z,26.60
2023-05-22T17:13:21.210Z,26.60
2023-05-22T17:18:23.514Z,26.90
2023-05-22T17:23:25.994Z,27.10
2023-05-22T17:28:28.128Z,27.00
2023-05-22T17:33:30.309Z,27.00
2023-05-22T17:38:32.458Z,26.90
2023-05-22T17:43:35.485Z,26.90
2023-05-22T17:48:37.613Z,26.70
2023-05-22T17:53:39.828Z,26.00
2023-05-22T17:58:41.934Z,26.10
2023-05-22T18:03:46.303Z,25.90
2023-05-22T18:08:48.973Z,25.80
2023-05-22T18:13:51.112Z,25.80
2023-05-22T18:18:53.390Z,25.40
2023-05-22T18:23:56.062Z,25.20
2023-05-22T18:28:58.242Z,25.40
2023-05-22T18:34:00.445Z,25.40
2023-05-22T18:39:02.667Z,25.40
2023-05-22T18:44:04.840Z,25.30
2023-05-22T18:49:07.077Z,25.30
2023-05-22T18:54:09.298Z,25.30
2023-05-22T18:59:11.500Z,25.30
2023-05-22T19:04:13.709Z,25.20
2023-05-22T19:09:19.065Z,25.20
2023-05-22T19:14:21.385Z,25.10
2023-05-22T19:19:23.526Z,25.10
2023-05-22T19:24:27.708Z,24.70
2023-05-22T19:29:29.901Z,24.50
2023-05-22T19:34:32.207Z,24.40
2023-05-22T19:39:34.432Z,24.30
2023-05-22T19:44:36.647Z,23.70
2023-05-22T19:49:38.853Z,23.50
2023-05-22T19:54:40.999Z,24.10
2023-05-22T19:59:43.304Z,24.30
2023-05-22T20:04:48.625Z,24.40
2023-05-22T20:09:51.572Z,24.30
2023-05-22T20:14:54.353Z,24.30
2023-05-22T20:19:58.913Z,24.40
2023-05-22T20:25:01.627Z,24.30
2023-05-22T20:30:04.697Z,24.30
2023-05-22T20:35:11.025Z,24.20
2023-05-22T20:40:14.586Z,24.30
2023-05-22T20:45:17.658Z,24.40
2023-05-22T20:50:20.035Z,24.30
2023-05-22T20:55:22.309Z,24.10
2023-05-22T21:00:24.485Z,24.20
2023-05-22T21:05:26.674Z,24.20
2023-05-22T21:10:28.963Z,24.10
2023-05-22T21:15:31.103Z,24.20
2023-05-22T21:20:33.204Z,23.90
2023-05-22T21:25:35.377Z,23.90
2023-05-22T21:30:37.703Z,23.90
2023-05-22T21:35:39.995Z,23.70
2023-05-22T21:40:43.063Z,23.80
2023-05-22T21:45:45.355Z,23.90
2023-05-22T21:50:47.957Z,23.90
2023-05-22T21:55:50.338Z,23.90
2023-05-22T22:00:54.705Z,23.80
2023-05-22T22:05:56.826Z,23.70
2023-05-22T22:10:59.745Z,23.80
2023-05-22T22:16:02.019Z,23.70
2023-05-22T22:21:04.782Z,23.60
2023-05-22T22:26:07.582Z,23.50
2023-05-22T22:31:10.027Z,23.60
2023-05-22T22:36:12.166Z,23.60
2023-05-22T22:41:14.317Z,23.40
2023-05-22T22:46:16.929Z,23.40
2023-05-22T22:51:20.209Z,23.40
2023-05-22T22:56:28.257Z,23.10
2023-05-22T23:01:30.556Z,22.20
2023-05-22T23:06:33.103Z,21.80
2023-05-22T23:11:37.845Z,21.90
2023-05-22T23:16:43.531Z,22.10
2023-05-22T23:21:46.215Z,21.80
2023-05-22T23:26:48.703Z,21.50
2023-05-22T23:31:50.957Z,21.60
2023-05-22T23:36:53.151Z,21.10
2023-05-22T23:41:55.361Z,21.40
2023-05-22T23:46:57.929Z,21.70
2023-05-22T23:52:00.352Z,21.70
2023-05-22T23:57:02.488Z,21.80
